createdAt,value
2018-03-16T00:00:13.553Z,0.00
2018-03-16T00:01:13.524Z,0.00
2018-03-16T00:02:13.400Z,0.00
2018-03-16T00:03:13.314Z,0.00
2018-03-16T00:04:13.236Z,0.00
2018-03-16T00:05:13.158Z,0.00
2018-03-16T00:06:13.080Z,0.00
2018-03-16T00:07:13.001Z,0.00
2018-03-16T00:08:12.923Z,0.00
2018-03-16T00:09:12.844Z,0.00
2018-03-16T00:10:12.765Z,0.00
2018-03-16T00:11:12.688Z,0.00
2018-03-16T00:12:12.609Z,0.00
2018-03-16T00:13:12.530Z,0.00
2018-03-16T00:14:12.451Z,0.00
2018-03-16T00:15:12.374Z,0.00
2018-03-16T00:16:12.294Z,0.00
2018-03-16T00:17:12.217Z,0.00
2018-03-16T00:18:12.141Z,0.00
2018-03-16T00:19:12.065Z,0.00
2018-03-16T00:20:11.982Z,0.00
2018-03-16T00:21:11.903Z,0.00
2018-03-16T00:22:11.824Z,0.00
2018-03-16T00:23:11.746Z,0.00
2018-03-16T00:24:11.667Z,0.00
2018-03-16T00:25:11.589Z,0.00
2018-03-16T00:26:11.511Z,0.00
2018-03-16T00:27:11.434Z,0.00
2018-03-16T00:28:11.352Z,0.00
2018-03-16T00:29:11.274Z,0.00
2018-03-16T00:30:11.195Z,0.00
2018-03-16T00:31:11.117Z,0.00
2018-03-16T00:32:11.038Z,0.00
2018-03-16T00:33:10.960Z,0.00
2018-03-16T00:34:10.881Z,0.00
2018-03-16T00:35:10.803Z,0.00
2018-03-16T00:36:10.722Z,0.00
2018-03-16T00:37:10.646Z,0.00
2018-03-16T00:38:10.566Z,0.00
2018-03-16T00:39:10.488Z,0.00
2018-03-16T00:40:10.407Z,0.00
2018-03-16T00:41:10.331Z,0.00
2018-03-16T00:42:10.251Z,0.00
2018-03-16T00:43:10.174Z,0.00
2018-03-16T00:44:10.094Z,0.00
2018-03-16T00:45:10.016Z,0.00
2018-03-16T00:46:09.937Z,0.00
2018-03-16T00:47:09.859Z,0.00
2018-03-16T00:48:09.778Z,0.00
2018-03-16T00:49:09.705Z,0.00
2018-03-16T00:50:09.622Z,0.00
2018-03-16T00:51:09.544Z,0.00
2018-03-16T00:52:09.465Z,0.00
2018-03-16T00:53:09.386Z,0.00
2018-03-16T00:54:09.308Z,0.00
2018-03-16T00:55:09.230Z,0.00
2018-03-16T00:56:09.151Z,0.00
2018-03-16T00:57:09.074Z,0.00
2018-03-16T00:58:08.995Z,0.00
2018-03-16T00:59:08.916Z,0.00
2018-03-16T01:00:08.836Z,0.00
2018-03-16T01:01:08.759Z,0.00
2018-03-16T01:02:08.679Z,0.00
2018-03-16T01:03:08.602Z,0.00
2018-03-16T01:04:08.521Z,0.00
2018-03-16T01:05:08.444Z,0.00
2018-03-16T01:06:08.365Z,0.00
2018-03-16T01:07:08.288Z,0.00
2018-03-16T01:08:08.208Z,0.00
2018-03-16T01:09:08.130Z,0.00
2018-03-16T01:10:08.053Z,0.00
2018-03-16T01:11:07.974Z,0.00
2018-03-16T01:12:07.895Z,0.00
2018-03-16T01:13:07.816Z,0.00
2018-03-16T01:14:07.739Z,0.00
2018-03-16T01:15:07.666Z,0.00
2018-03-16T01:16:07.581Z,0.00
2018-03-16T01:17:07.506Z,0.00
2018-03-16T01:18:07.424Z,0.00
2018-03-16T01:19:07.346Z,0.00
2018-03-16T01:20:07.266Z,0.00
2018-03-16T01:21:07.188Z,0.00
2018-03-16T01:22:07.110Z,0.00
2018-03-16T01:23:07.031Z,0.00
2018-03-16T01:24:06.952Z,0.00
2018-03-16T01:25:06.873Z,0.00
2018-03-16T01:26:06.794Z,0.00
2018-03-16T01:27:06.717Z,0.00
2018-03-16T01:28:06.638Z,0.00
2018-03-16T01:29:06.558Z,0.00
2018-03-16T01:30:06.481Z,0.00
2018-03-16T01:31:06.404Z,0.00
2018-03-16T01:32:06.323Z,0.00
2018-03-16T01:33:06.244Z,0.00
2018-03-16T01:34:06.166Z,0.00
2018-03-16T01:35:06.092Z,0.00
2018-03-16T01:36:06.008Z,0.00
2018-03-16T01:37:05.929Z,0.00
2018-03-16T01:38:05.851Z,0.00
2018-03-16T01:39:05.774Z,0.00
2018-03-16T01:40:05.696Z,0.00
2018-03-16T01:41:05.614Z,0.00
2018-03-16T01:42:05.536Z,0.00
2018-03-16T01:43:05.458Z,0.00
2018-03-16T01:44:05.378Z,0.00
2018-03-16T01:45:05.300Z,0.00
2018-03-16T01:46:05.222Z,0.00
2018-03-16T01:47:05.144Z,0.00
2018-03-16T01:48:05.064Z,0.00
2018-03-16T01:49:04.987Z,0.00
2018-03-16T01:50:04.907Z,0.00
2018-03-16T01:51:04.850Z,0.00
2018-03-16T01:52:04.750Z,0.00
2018-03-16T01:53:04.672Z,0.00
2018-03-16T01:54:04.593Z,0.00
2018-03-16T01:55:04.515Z,0.00
2018-03-16T01:56:04.436Z,0.00
2018-03-16T01:57:04.358Z,0.00
2018-03-16T01:58:04.279Z,0.00
2018-03-16T01:59:04.203Z,0.00
2018-03-16T02:00:04.122Z,0.00
2018-03-16T02:01:04.044Z,0.00
2018-03-16T02:02:03.964Z,0.00
2018-03-16T02:03:03.885Z,0.00
2018-03-16T02:04:03.806Z,0.00
2018-03-16T02:05:03.728Z,0.00
2018-03-16T02:06:03.650Z,0.00
2018-03-16T02:07:03.575Z,0.00
2018-03-16T02:08:03.491Z,0.00
2018-03-16T02:09:03.414Z,0.00
2018-03-16T02:10:03.336Z,0.00
2018-03-16T02:11:03.257Z,0.00
2018-03-16T02:12:03.177Z,0.00
2018-03-16T02:13:03.100Z,0.00
2018-03-16T02:14:03.022Z,0.00
2018-03-16T02:15:02.943Z,0.00
2018-03-16T02:16:02.863Z,0.00
2018-03-16T02:17:02.786Z,0.00
2018-03-16T02:18:02.707Z,0.00
2018-03-16T02:19:02.628Z,0.00
2018-03-16T02:20:02.548Z,0.00
2018-03-16T02:21:02.471Z,0.00
2018-03-16T02:22:02.392Z,0.00
2018-03-16T02:23:02.314Z,0.00
2018-03-16T02:24:02.234Z,0.00
2018-03-16T02:25:02.157Z,0.00
2018-03-16T02:26:02.077Z,0.00
2018-03-16T02:27:01.997Z,0.00
2018-03-16T02:28:01.919Z,0.00
2018-03-16T02:29:01.842Z,0.00
2018-03-16T02:30:01.763Z,0.00
2018-03-16T02:31:01.685Z,0.00
2018-03-16T02:32:01.604Z,0.00
2018-03-16T02:33:01.527Z,0.00
2018-03-16T02:34:01.448Z,0.00
2018-03-16T02:35:01.369Z,0.00
2018-03-16T02:36:01.292Z,0.00
2018-03-16T02:37:01.216Z,0.00
2018-03-16T02:38:01.134Z,0.00
2018-03-16T02:39:01.054Z,0.00
2018-03-16T02:40:00.976Z,0.00
2018-03-16T02:41:00.896Z,0.00
2018-03-16T02:42:00.819Z,0.00
2018-03-16T02:43:00.740Z,0.00
2018-03-16T02:44:00.662Z,0.00
2018-03-16T02:45:00.583Z,0.00
2018-03-16T02:46:00.509Z,0.00
2018-03-16T02:47:00.426Z,0.00
2018-03-16T02:48:00.347Z,0.00
2018-03-16T02:49:00.269Z,0.00
2018-03-16T02:50:00.190Z,0.00
2018-03-16T02:51:00.114Z,0.00
2018-03-16T02:52:00.033Z,0.00
2018-03-16T02:52:59.956Z,0.00
2018-03-16T02:53:59.876Z,0.00
2018-03-16T02:54:59.798Z,0.00
2018-03-16T02:55:59.717Z,0.00
2018-03-16T02:56:59.639Z,0.00
2018-03-16T02:57:59.561Z,0.00
2018-03-16T02:58:59.482Z,0.00
2018-03-16T02:59:59.404Z,0.00
2018-03-16T03:00:59.324Z,0.00
2018-03-16T03:01:59.246Z,0.00
2018-03-16T03:02:59.167Z,0.00
2018-03-16T03:03:59.089Z,0.00
2018-03-16T03:04:59.010Z,0.00
2018-03-16T03:05:58.934Z,0.00
2018-03-16T03:06:58.853Z,0.00
2018-03-16T03:07:58.774Z,0.00
2018-03-16T03:08:58.696Z,0.00
2018-03-16T03:09:58.619Z,0.00
2018-03-16T03:10:58.541Z,0.00
2018-03-16T03:11:58.464Z,0.00
2018-03-16T03:12:58.383Z,0.00
2018-03-16T03:13:58.305Z,0.00
2018-03-16T03:14:58.228Z,0.00
2018-03-16T03:15:58.147Z,0.00
2018-03-16T03:16:58.068Z,0.00
2018-03-16T03:17:57.989Z,0.00
2018-03-16T03:18:57.912Z,0.00
2018-03-16T03:19:57.833Z,0.00
2018-03-16T03:20:57.755Z,0.00
2018-03-16T03:21:57.678Z,0.00
2018-03-16T03:22:57.597Z,0.00
2018-03-16T03:23:57.519Z,0.00
2018-03-16T03:24:57.438Z,0.00
2018-03-16T03:25:57.360Z,0.00
2018-03-16T03:26:57.283Z,0.00
2018-03-16T03:27:57.203Z,0.00
2018-03-16T03:28:57.129Z,0.00
2018-03-16T03:29:57.051Z,0.00
2018-03-16T03:30:56.969Z,0.00
2018-03-16T03:31:56.888Z,0.00
2018-03-16T03:32:56.811Z,0.00
2018-03-16T03:33:56.732Z,0.00
2018-03-16T03:34:56.654Z,0.00
2018-03-16T03:35:56.574Z,0.00
2018-03-16T03:36:56.495Z,0.00
2018-03-16T03:37:56.417Z,0.00
2018-03-16T03:38:56.337Z,0.00
2018-03-16T03:39:56.258Z,0.00
2018-03-16T03:40:56.182Z,0.00
2018-03-16T03:41:56.101Z,0.00
2018-03-16T03:42:56.023Z,0.00
2018-03-16T03:43:55.945Z,0.00
2018-03-16T03:44:55.866Z,0.00
2018-03-16T03:45:55.791Z,0.00
2018-03-16T03:46:55.709Z,0.00
2018-03-16T03:47:55.628Z,0.00
2018-03-16T03:48:55.551Z,0.00
2018-03-16T03:49:55.472Z,0.00
2018-03-16T03:50:55.402Z,0.00
2018-03-16T03:51:55.315Z,0.00
2018-03-16T03:52:55.237Z,0.00
2018-03-16T03:53:55.159Z,0.00
2018-03-16T03:54:55.080Z,0.00
2018-03-16T03:55:55.000Z,0.00
2018-03-16T03:56:54.921Z,0.00
2018-03-16T03:57:54.844Z,0.00
2018-03-16T03:58:54.764Z,0.00
2018-03-16T03:59:54.686Z,0.00
2018-03-16T04:00:54.608Z,0.00
2018-03-16T04:01:54.528Z,0.00
2018-03-16T04:02:54.451Z,0.00
2018-03-16T04:03:54.370Z,0.00
2018-03-16T04:04:54.297Z,0.00
2018-03-16T04:05:54.233Z,0.00
2018-03-16T04:06:54.134Z,0.00
2018-03-16T04:07:54.056Z,0.00
2018-03-16T04:08:53.978Z,0.00
2018-03-16T04:09:53.900Z,0.00
2018-03-16T04:10:53.822Z,0.00
2018-03-16T04:11:53.749Z,0.00
2018-03-16T04:12:53.664Z,0.00
2018-03-16T04:13:53.585Z,0.00
2018-03-16T04:14:53.520Z,0.00
2018-03-16T04:15:53.427Z,0.00
2018-03-16T04:16:53.349Z,0.00
2018-03-16T04:17:53.273Z,0.00
2018-03-16T04:18:53.193Z,0.00
2018-03-16T04:19:53.111Z,0.00
2018-03-16T04:20:53.034Z,0.00
2018-03-16T04:21:52.961Z,0.00
2018-03-16T04:22:52.876Z,0.00
2018-03-16T04:23:52.798Z,0.00
2018-03-16T04:24:52.719Z,0.00
2018-03-16T04:25:52.698Z,0.00
2018-03-16T04:26:52.563Z,0.00
2018-03-16T04:27:52.486Z,0.00
2018-03-16T04:28:52.405Z,0.00
2018-03-16T04:29:52.327Z,0.00
2018-03-16T04:30:52.248Z,0.00
2018-03-16T04:31:52.168Z,0.00
2018-03-16T04:32:52.089Z,0.00
2018-03-16T04:33:52.011Z,0.00
2018-03-16T04:34:51.933Z,0.00
2018-03-16T04:35:51.853Z,0.00
2018-03-16T04:36:51.775Z,0.00
2018-03-16T04:37:51.697Z,0.00
2018-03-16T04:38:51.617Z,0.00
2018-03-16T04:39:51.541Z,0.00
2018-03-16T04:40:51.460Z,0.00
2018-03-16T04:41:51.381Z,0.00
2018-03-16T04:42:51.304Z,0.00
2018-03-16T04:43:51.223Z,0.00
2018-03-16T04:44:51.145Z,0.00
2018-03-16T04:45:51.067Z,0.00
2018-03-16T04:46:50.989Z,0.00
2018-03-16T04:47:50.909Z,0.00
2018-03-16T04:48:50.831Z,0.00
2018-03-16T04:49:50.752Z,0.00
2018-03-16T04:50:50.673Z,0.00
2018-03-16T04:51:50.595Z,0.00
2018-03-16T04:52:50.515Z,0.00
2018-03-16T04:53:50.437Z,0.00
2018-03-16T04:54:50.359Z,0.00
2018-03-16T04:55:50.280Z,0.00
2018-03-16T04:56:50.199Z,0.00
2018-03-16T04:57:50.120Z,0.00
2018-03-16T04:58:50.042Z,0.00
2018-03-16T04:59:49.964Z,0.00
2018-03-16T05:00:49.885Z,0.00
2018-03-16T05:01:49.806Z,0.00
2018-03-16T05:02:49.728Z,0.00
2018-03-16T05:03:49.647Z,0.00
2018-03-16T05:04:49.569Z,0.00
2018-03-16T05:05:49.491Z,0.00
2018-03-16T05:06:49.413Z,0.00
2018-03-16T05:07:49.335Z,0.00
2018-03-16T05:08:49.255Z,0.00
2018-03-16T05:09:49.178Z,0.00
2018-03-16T05:10:49.099Z,0.00
2018-03-16T05:11:49.018Z,0.00
2018-03-16T05:12:48.940Z,0.00
2018-03-16T05:13:48.860Z,4.00
2018-03-16T05:14:48.782Z,4.00
2018-03-16T05:15:48.703Z,0.00
2018-03-16T05:16:48.627Z,0.00
2018-03-16T05:17:48.546Z,4.00
2018-03-16T05:18:48.468Z,4.00
2018-03-16T05:19:48.388Z,4.00
2018-03-16T05:20:48.312Z,8.00
2018-03-16T05:21:48.230Z,8.00
2018-03-16T05:22:48.153Z,4.00
2018-03-16T05:23:48.074Z,8.00
2018-03-16T05:24:47.995Z,8.00
2018-03-16T05:25:47.916Z,12.00
2018-03-16T05:26:47.837Z,12.00
2018-03-16T05:27:47.758Z,12.00
2018-03-16T05:28:47.681Z,12.00
2018-03-16T05:29:47.602Z,16.00
2018-03-16T05:30:47.523Z,16.00
2018-03-16T05:31:47.446Z,20.00
2018-03-16T05:32:47.366Z,24.00
2018-03-16T05:33:47.285Z,28.00
2018-03-16T05:34:47.209Z,28.00
2018-03-16T05:35:47.129Z,28.00
2018-03-16T05:36:47.051Z,32.00
2018-03-16T05:37:46.973Z,32.00
2018-03-16T05:38:46.893Z,36.00
2018-03-16T05:39:46.814Z,40.00
2018-03-16T05:40:46.736Z,48.00
2018-03-16T05:41:47.009Z,60.00
2018-03-16T05:42:46.579Z,64.00
2018-03-16T05:43:46.500Z,68.00
2018-03-16T05:44:46.421Z,76.00
2018-03-16T05:45:46.342Z,76.00
2018-03-16T05:46:46.264Z,76.00
2018-03-16T05:47:46.185Z,80.00
2018-03-16T05:48:46.106Z,84.00
2018-03-16T05:49:46.028Z,92.00
2018-03-16T05:50:45.950Z,100.00
2018-03-16T05:51:45.870Z,116.00
2018-03-16T05:52:45.791Z,120.00
2018-03-16T05:53:45.714Z,116.00
2018-03-16T05:54:45.636Z,112.00
2018-03-16T05:55:45.556Z,112.00
2018-03-16T05:56:45.477Z,116.00
2018-03-16T05:57:45.400Z,116.00
2018-03-16T05:58:45.322Z,112.00
2018-03-16T05:59:45.243Z,108.00
2018-03-16T06:00:45.228Z,108.00
2018-03-16T06:01:45.085Z,104.00
2018-03-16T06:02:45.008Z,96.00
2018-03-16T06:03:44.929Z,100.00
2018-03-16T06:04:44.851Z,104.00
2018-03-16T06:05:44.772Z,100.00
2018-03-16T06:06:44.693Z,104.00
2018-03-16T06:07:44.915Z,104.00
2018-03-16T06:08:44.537Z,104.00
2018-03-16T06:09:44.459Z,116.00
2018-03-16T06:10:44.381Z,116.00
2018-03-16T06:11:44.301Z,112.00
2018-03-16T06:12:44.224Z,108.00
2018-03-16T06:13:44.146Z,100.00
2018-03-16T06:14:44.067Z,92.00
2018-03-16T06:15:43.988Z,88.00
2018-03-16T06:16:43.910Z,96.00
2018-03-16T06:17:43.831Z,100.00
2018-03-16T06:18:43.754Z,112.00
2018-03-16T06:19:43.676Z,120.00
2018-03-16T06:20:43.598Z,124.00
2018-03-16T06:21:43.548Z,120.00
2018-03-16T06:22:43.443Z,144.00
2018-03-16T06:23:43.362Z,152.00
2018-03-16T06:24:43.284Z,172.00
2018-03-16T06:25:43.206Z,176.00
2018-03-16T06:26:43.128Z,184.00
2018-03-16T06:27:43.047Z,192.00
2018-03-16T06:28:42.971Z,212.00
2018-03-16T06:29:42.892Z,224.00
2018-03-16T06:30:42.815Z,220.00
2018-03-16T06:31:42.737Z,212.00
2018-03-16T06:32:42.657Z,228.00
2018-03-16T06:33:42.580Z,244.00
2018-03-16T06:34:42.501Z,276.00
2018-03-16T06:35:42.426Z,344.00
2018-03-16T06:36:42.346Z,360.00
2018-03-16T06:37:42.265Z,408.00
2018-03-16T06:38:42.188Z,440.00
2018-03-16T06:39:42.108Z,476.00
2018-03-16T06:40:42.031Z,500.00
2018-03-16T06:41:41.951Z,476.00
2018-03-16T06:42:41.874Z,564.00
2018-03-16T06:43:41.796Z,656.00
2018-03-16T06:44:41.853Z,692.00
2018-03-16T06:45:41.640Z,716.00
2018-03-16T06:46:41.562Z,692.00
2018-03-16T06:47:41.485Z,624.00
2018-03-16T06:48:41.404Z,640.00
2018-03-16T06:49:41.326Z,708.00
2018-03-16T06:50:41.250Z,676.00
2018-03-16T06:51:41.168Z,740.00
2018-03-16T06:52:41.091Z,764.00
2018-03-16T06:53:41.017Z,760.00
2018-03-16T06:54:40.935Z,764.00
2018-03-16T06:55:40.856Z,804.00
2018-03-16T06:56:40.779Z,852.00
2018-03-16T06:57:40.700Z,888.00
2018-03-16T06:58:40.621Z,916.00
2018-03-16T06:59:40.543Z,904.00
2018-03-16T07:00:40.466Z,896.00
2018-03-16T07:01:40.387Z,856.00
2018-03-16T07:02:40.310Z,992.00
2018-03-16T07:03:40.231Z,992.00
2018-03-16T07:04:40.152Z,964.00
2018-03-16T07:05:40.075Z,960.00
2018-03-16T07:06:39.997Z,956.00
2018-03-16T07:07:39.926Z,1008.00
2018-03-16T07:08:39.841Z,1052.00
2018-03-16T07:09:39.761Z,1060.00
2018-03-16T07:10:39.684Z,1136.00
2018-03-16T07:11:39.605Z,1216.00
2018-03-16T07:12:39.526Z,1176.00
2018-03-16T07:13:39.448Z,1112.00
2018-03-16T07:14:39.371Z,1152.00
2018-03-16T07:15:39.292Z,1004.00
2018-03-16T07:16:39.214Z,964.00
2018-03-16T07:17:39.136Z,1220.00
2018-03-16T07:18:39.057Z,1056.00
2018-03-16T07:19:38.979Z,996.00
2018-03-16T07:20:38.905Z,1076.00
2018-03-16T07:21:38.823Z,1248.00
2018-03-16T07:22:38.745Z,1496.00
2018-03-16T07:23:38.666Z,1592.00
2018-03-16T07:24:38.589Z,1732.00
2018-03-16T07:25:38.510Z,2112.00
2018-03-16T07:26:38.433Z,2080.00
2018-03-16T07:27:38.353Z,1660.00
2018-03-16T07:28:38.276Z,1524.00
2018-03-16T07:29:38.234Z,1532.00
2018-03-16T07:30:38.119Z,1712.00
2018-03-16T07:31:38.039Z,1492.00
2018-03-16T07:32:37.962Z,1508.00
2018-03-16T07:33:37.885Z,1348.00
2018-03-16T07:34:37.807Z,1128.00
2018-03-16T07:35:37.727Z,1184.00
2018-03-16T07:36:37.650Z,1028.00
2018-03-16T07:37:37.572Z,1024.00
2018-03-16T07:38:37.493Z,940.00
2018-03-16T07:39:37.414Z,888.00
2018-03-16T07:40:37.336Z,860.00
2018-03-16T07:41:37.261Z,952.00
2018-03-16T07:42:37.180Z,976.00
2018-03-16T07:43:37.100Z,980.00
2018-03-16T07:44:37.022Z,972.00
2018-03-16T07:45:36.945Z,1120.00
2018-03-16T07:46:36.865Z,1128.00
2018-03-16T07:47:36.830Z,1216.00
2018-03-16T07:48:36.708Z,1592.00
2018-03-16T07:49:36.637Z,1640.00
2018-03-16T07:50:36.552Z,1840.00
2018-03-16T07:51:36.473Z,2012.00
2018-03-16T07:52:36.400Z,1792.00
2018-03-16T07:53:36.317Z,1740.00
2018-03-16T07:54:36.238Z,1908.00
2018-03-16T07:55:36.160Z,1840.00
2018-03-16T07:56:36.082Z,1792.00
2018-03-16T07:57:36.004Z,1964.00
2018-03-16T07:58:35.926Z,2040.00
2018-03-16T07:59:35.847Z,1944.00
2018-03-16T08:00:35.769Z,1804.00
2018-03-16T08:01:35.691Z,1772.00
2018-03-16T08:02:35.614Z,1612.00
2018-03-16T08:03:35.533Z,1612.00
2018-03-16T08:04:35.455Z,1688.00
2018-03-16T08:05:35.378Z,1788.00
2018-03-16T08:06:35.305Z,1712.00
2018-03-16T08:07:35.222Z,1592.00
2018-03-16T08:08:35.146Z,1860.00
2018-03-16T08:09:35.067Z,2220.00
2018-03-16T08:10:34.988Z,2304.00
2018-03-16T08:11:34.909Z,2056.00
2018-03-16T08:12:34.832Z,1720.00
2018-03-16T08:13:34.753Z,1700.00
2018-03-16T08:14:34.680Z,1652.00
2018-03-16T08:15:34.597Z,1848.00
2018-03-16T08:16:34.519Z,1588.00
2018-03-16T08:17:34.442Z,1548.00
2018-03-16T08:18:34.364Z,1808.00
2018-03-16T08:19:34.288Z,1700.00
2018-03-16T08:20:34.206Z,1508.00
2018-03-16T08:21:34.130Z,1624.00
2018-03-16T08:22:34.052Z,1716.00
2018-03-16T08:23:33.973Z,2984.00
2018-03-16T08:24:33.895Z,3224.00
2018-03-16T08:25:33.817Z,2668.00
2018-03-16T08:26:33.739Z,2104.00
2018-03-16T08:27:33.659Z,2540.00
2018-03-16T08:28:33.585Z,2808.00
2018-03-16T08:29:33.504Z,2984.00
2018-03-16T08:30:33.426Z,3172.00
2018-03-16T08:31:33.347Z,3044.00
2018-03-16T08:32:33.270Z,3252.00
2018-03-16T08:33:33.194Z,3116.00
2018-03-16T08:34:33.114Z,2604.00
2018-03-16T08:35:33.035Z,2564.00
2018-03-16T08:36:32.957Z,2400.00
2018-03-16T08:37:32.878Z,2932.00
2018-03-16T08:38:32.801Z,2868.00
2018-03-16T08:39:32.722Z,2420.00
2018-03-16T08:40:32.646Z,2364.00
2018-03-16T08:41:32.569Z,2236.00
2018-03-16T08:42:32.489Z,2392.00
2018-03-16T08:43:32.412Z,2556.00
2018-03-16T08:44:32.332Z,2552.00
2018-03-16T08:45:32.253Z,2236.00
2018-03-16T08:46:32.176Z,2196.00
2018-03-16T08:47:32.097Z,2076.00
2018-03-16T08:48:32.020Z,1960.00
2018-03-16T08:49:31.945Z,1584.00
2018-03-16T08:50:31.864Z,1512.00
2018-03-16T08:51:31.785Z,1592.00
2018-03-16T08:52:31.710Z,1860.00
2018-03-16T08:53:31.629Z,2116.00
2018-03-16T08:54:31.587Z,2068.00
2018-03-16T08:55:31.473Z,2164.00
2018-03-16T08:56:31.396Z,1896.00
2018-03-16T08:57:31.321Z,1572.00
2018-03-16T08:58:31.238Z,1640.00
2018-03-16T08:59:31.160Z,1956.00
2018-03-16T09:00:31.082Z,2120.00
2018-03-16T09:01:31.005Z,2424.00
2018-03-16T09:02:30.927Z,3012.00
2018-03-16T09:03:30.848Z,2768.00
2018-03-16T09:04:30.770Z,3084.00
2018-03-16T09:05:30.691Z,2644.00
2018-03-16T09:06:30.613Z,2180.00
2018-03-16T09:07:30.535Z,2072.00
2018-03-16T09:08:30.457Z,2068.00
2018-03-16T09:09:30.378Z,1996.00
2018-03-16T09:10:30.302Z,1716.00
2018-03-16T09:11:30.223Z,1612.00
2018-03-16T09:12:30.167Z,1572.00
2018-03-16T09:13:30.068Z,1704.00
2018-03-16T09:14:29.988Z,1776.00
2018-03-16T09:15:29.911Z,1864.00
2018-03-16T09:16:29.832Z,1860.00
2018-03-16T09:17:29.755Z,1852.00
2018-03-16T09:18:29.675Z,1812.00
2018-03-16T09:19:29.597Z,1996.00
2018-03-16T09:20:29.519Z,2288.00
2018-03-16T09:21:29.442Z,2384.00
2018-03-16T09:22:29.363Z,2356.00
2018-03-16T09:23:29.285Z,2372.00
2018-03-16T09:24:29.207Z,2436.00
2018-03-16T09:25:29.170Z,3248.00
2018-03-16T09:26:29.052Z,3628.00
2018-03-16T09:27:28.973Z,3312.00
2018-03-16T09:28:28.896Z,3336.00
2018-03-16T09:29:28.817Z,3572.00
2018-03-16T09:30:28.740Z,3548.00
2018-03-16T09:31:28.661Z,3416.00
2018-03-16T09:32:28.585Z,3232.00
2018-03-16T09:33:28.507Z,3008.00
2018-03-16T09:34:28.431Z,2908.00
2018-03-16T09:35:28.351Z,2996.00
2018-03-16T09:36:28.275Z,3104.00
2018-03-16T09:37:28.196Z,2696.00
2018-03-16T09:38:28.124Z,2204.00
2018-03-16T09:39:28.041Z,2380.00
2018-03-16T09:40:27.964Z,2868.00
2018-03-16T09:41:27.885Z,3164.00
2018-03-16T09:42:27.809Z,2896.00
2018-03-16T09:43:27.731Z,2356.00
2018-03-16T09:44:27.655Z,2288.00
2018-03-16T09:45:27.576Z,2984.00
2018-03-16T09:46:27.499Z,3172.00
2018-03-16T09:47:27.420Z,3392.00
2018-03-16T09:48:27.344Z,4500.00
2018-03-16T09:49:27.268Z,5684.00
2018-03-16T09:50:27.189Z,6328.00
2018-03-16T09:51:27.111Z,6644.00
2018-03-16T09:52:27.034Z,7292.00
2018-03-16T09:53:26.957Z,7656.00
2018-03-16T09:54:26.878Z,8496.00
2018-03-16T09:55:26.802Z,8064.00
2018-03-16T09:56:26.725Z,8060.00
2018-03-16T09:57:26.648Z,7040.00
2018-03-16T09:58:26.572Z,8256.00
2018-03-16T09:59:26.492Z,7608.00
2018-03-16T10:00:26.417Z,6792.00
2018-03-16T10:01:26.340Z,5780.00
2018-03-16T10:02:26.263Z,5732.00
2018-03-16T10:03:26.185Z,5788.00
2018-03-16T10:04:26.109Z,5284.00
2018-03-16T10:05:26.034Z,4216.00
2018-03-16T10:06:25.957Z,4816.00
2018-03-16T10:07:25.920Z,4404.00
2018-03-16T10:08:25.803Z,4520.00
2018-03-16T10:09:25.726Z,4620.00
2018-03-16T10:10:25.654Z,4648.00
2018-03-16T10:11:25.572Z,4432.00
2018-03-16T10:12:25.497Z,4884.00
2018-03-16T10:13:25.421Z,5640.00
2018-03-16T10:14:25.366Z,6316.00
2018-03-16T10:15:25.267Z,6696.00
2018-03-16T10:16:25.191Z,5964.00
2018-03-16T10:17:25.115Z,4964.00
2018-03-16T10:18:25.039Z,4316.00
2018-03-16T10:19:24.962Z,3828.00
2018-03-16T10:20:24.885Z,4292.00
2018-03-16T10:21:24.810Z,4436.00
2018-03-16T10:22:24.735Z,3964.00
2018-03-16T10:23:24.806Z,4364.00
2018-03-16T10:24:24.582Z,4780.00
2018-03-16T10:25:24.505Z,4620.00
2018-03-16T10:26:24.432Z,4000.00
2018-03-16T10:27:24.351Z,4300.00
2018-03-16T10:28:24.275Z,4664.00
2018-03-16T10:29:24.200Z,4476.00
2018-03-16T10:30:24.123Z,3808.00
2018-03-16T10:31:24.051Z,3272.00
2018-03-16T10:32:23.969Z,3012.00
2018-03-16T10:33:23.893Z,3108.00
2018-03-16T10:34:23.817Z,2800.00
2018-03-16T10:35:23.741Z,2728.00
2018-03-16T10:36:23.664Z,2780.00
2018-03-16T10:37:23.588Z,3072.00
2018-03-16T10:38:23.511Z,2908.00
2018-03-16T10:39:23.434Z,3372.00
2018-03-16T10:40:23.356Z,3184.00
2018-03-16T10:41:23.281Z,2832.00
2018-03-16T10:42:23.204Z,3560.00
2018-03-16T10:43:23.128Z,2972.00
2018-03-16T10:44:23.049Z,2604.00
2018-03-16T10:45:22.973Z,2552.00
2018-03-16T10:46:22.894Z,2860.00
2018-03-16T10:47:22.817Z,2584.00
2018-03-16T10:48:22.741Z,2392.00
2018-03-16T10:49:22.664Z,2204.00
2018-03-16T10:50:22.586Z,2176.00
2018-03-16T10:51:22.509Z,2376.00
2018-03-16T10:52:22.431Z,2484.00
2018-03-16T10:53:22.355Z,3268.00
2018-03-16T10:54:22.278Z,3716.00
2018-03-16T10:55:22.200Z,2896.00
2018-03-16T10:56:22.123Z,3532.00
2018-03-16T10:57:22.045Z,3368.00
2018-03-16T10:58:21.969Z,3056.00
2018-03-16T10:59:21.891Z,3380.00
2018-03-16T11:00:21.814Z,3856.00
2018-03-16T11:01:21.735Z,3248.00
2018-03-16T11:02:21.659Z,3636.00
2018-03-16T11:03:21.581Z,3864.00
2018-03-16T11:04:21.504Z,4396.00
2018-03-16T11:05:21.426Z,4212.00
2018-03-16T11:06:21.350Z,3404.00
2018-03-16T11:07:21.272Z,3700.00
2018-03-16T11:08:21.194Z,4260.00
2018-03-16T11:09:21.128Z,3692.00
2018-03-16T11:10:21.041Z,4360.00
2018-03-16T11:11:20.962Z,4672.00
2018-03-16T11:12:20.885Z,5440.00
2018-03-16T11:13:20.809Z,5888.00
2018-03-16T11:14:20.733Z,7096.00
2018-03-16T11:15:20.653Z,7684.00
2018-03-16T11:16:20.576Z,7408.00
2018-03-16T11:17:20.504Z,6900.00
2018-03-16T11:18:20.423Z,6440.00
2018-03-16T11:19:20.346Z,6624.00
2018-03-16T11:20:20.270Z,6276.00
2018-03-16T11:21:20.193Z,6524.00
2018-03-16T11:22:20.116Z,6556.00
2018-03-16T11:23:20.039Z,5292.00
2018-03-16T11:24:19.962Z,4280.00
2018-03-16T11:25:19.886Z,4684.00
2018-03-16T11:26:19.810Z,5572.00
2018-03-16T11:27:19.732Z,4648.00
2018-03-16T11:28:19.657Z,4812.00
2018-03-16T11:29:19.580Z,5276.00
2018-03-16T11:30:19.504Z,5012.00
2018-03-16T11:31:19.428Z,4808.00
2018-03-16T11:32:19.356Z,5140.00
2018-03-16T11:33:19.275Z,4912.00
2018-03-16T11:34:19.198Z,3992.00
2018-03-16T11:35:19.121Z,4944.00
2018-03-16T11:36:19.045Z,5980.00
2018-03-16T11:37:18.970Z,6948.00
2018-03-16T11:38:18.896Z,5576.00
2018-03-16T11:39:18.815Z,5352.00
2018-03-16T11:40:18.740Z,5800.00
2018-03-16T11:41:18.664Z,5792.00
2018-03-16T11:42:18.587Z,6404.00
2018-03-16T11:43:18.513Z,6504.00
2018-03-16T11:44:18.435Z,6160.00
2018-03-16T11:45:18.359Z,5792.00
2018-03-16T11:46:18.283Z,5344.00
2018-03-16T11:47:18.204Z,7452.00
2018-03-16T11:48:18.130Z,8688.00
2018-03-16T11:49:18.053Z,9456.00
2018-03-16T11:50:17.978Z,10888.00
2018-03-16T11:51:17.900Z,8752.00
2018-03-16T11:52:17.825Z,7280.00
2018-03-16T11:53:17.749Z,7912.00
2018-03-16T11:54:17.673Z,10836.00
2018-03-16T11:55:17.600Z,10680.00
2018-03-16T11:56:17.521Z,12060.00
2018-03-16T11:57:17.446Z,15996.00
2018-03-16T11:58:17.370Z,19680.00
2018-03-16T11:59:17.297Z,15956.00
2018-03-16T12:00:17.219Z,15272.00
2018-03-16T12:01:17.142Z,14724.00
2018-03-16T12:02:17.072Z,18912.00
2018-03-16T12:03:16.989Z,16896.00
2018-03-16T12:04:16.917Z,13300.00
2018-03-16T12:05:16.893Z,16640.00
2018-03-16T12:06:16.764Z,10468.00
2018-03-16T12:07:16.689Z,8940.00
2018-03-16T12:08:16.614Z,8632.00
2018-03-16T12:09:16.539Z,8164.00
2018-03-16T12:10:16.466Z,8192.00
2018-03-16T12:11:16.389Z,7912.00
2018-03-16T12:12:16.314Z,9184.00
2018-03-16T12:13:16.240Z,11476.00
2018-03-16T12:14:16.164Z,12276.00
2018-03-16T12:15:16.090Z,12324.00
2018-03-16T12:16:16.015Z,10800.00
2018-03-16T12:17:15.940Z,9280.00
2018-03-16T12:18:15.865Z,7932.00
2018-03-16T12:19:15.790Z,6480.00
2018-03-16T12:20:15.717Z,8820.00
2018-03-16T12:21:15.641Z,7284.00
2018-03-16T12:22:15.568Z,5924.00
2018-03-16T12:23:15.492Z,5672.00
2018-03-16T12:24:15.418Z,4524.00
2018-03-16T12:25:15.343Z,3932.00
2018-03-16T12:26:15.269Z,4372.00
2018-03-16T12:27:15.191Z,5004.00
2018-03-16T12:28:15.118Z,5296.00
2018-03-16T12:29:15.043Z,4284.00
2018-03-16T12:30:14.967Z,3752.00
2018-03-16T12:31:14.890Z,3612.00
2018-03-16T12:32:14.817Z,3316.00
2018-03-16T12:33:14.742Z,2696.00
2018-03-16T12:34:14.666Z,3364.00
2018-03-16T12:35:14.590Z,3304.00
2018-03-16T12:36:14.519Z,2728.00
2018-03-16T12:37:14.441Z,2608.00
2018-03-16T12:38:14.364Z,2840.00